Country
Station

 

Weather  for  Fort Collins Automatic Weather Observing/Reporting System  -  United States    United States

  
20 °C (68 °F)
    
 
 

Current METAR for Fort Collins Automatic Weather Observing/Reporting System is :

KFNL 211756Z AUTO 00000KT 10SM CLR 20/09 A3003 RMK AO2 SLP130 T02000094 10200 20039 58004

 

This is a report for Fort Collins Automatic Weather Observing/Reporting System - United States.
 
The report was made 30 minutes ago, at 17:56 UTC .
The wind was calm.
 
The temperature was 20 °C (68 °F), with a dew-point at 9 °C (48 °F).
The atmospheric pressure was 1017 hPa (30.03 inHg).
The relative humidity was 49.1%.
 
The sky was clear.
 
The overall visibility was 16.1 kilometers (10.0 miles).
 

 
 
 
 

Country :   A   B   C   D   E   F   G   H   I   J   K   L   M   N   O   P   Q   R   S   T   U   V   W   Y   Z

 

Site Info  |  Disclaimer  |  Credits  |  Privacy
Contact us  |  Add to favorites
© 2013-2018 METARs - All rights reserved